createdAt,value
2023-04-02T00:01:39.209Z,48.70
2023-04-02T00:04:16.147Z,48.40
2023-04-02T00:06:46.552Z,48.50
2023-04-02T00:09:13.217Z,48.40
2023-04-02T00:11:45.674Z,48.40
2023-04-02T00:14:28.074Z,48.60
2023-04-02T00:16:56.053Z,48.60
2023-04-02T00:19:35.163Z,48.60
2023-04-02T00:22:05.870Z,48.50
2023-04-02T00:24:33.642Z,48.50
2023-04-02T00:27:00.902Z,48.50
2023-04-02T00:29:27.755Z,48.50
2023-04-02T00:31:54.953Z,48.30
2023-04-02T00:34:42.050Z,48.50
2023-04-02T00:37:18.289Z,48.50
2023-04-02T00:39:45.988Z,48.50
2023-04-02T00:42:13.148Z,48.50
2023-04-02T00:44:44.455Z,48.40
2023-04-02T00:47:22.597Z,48.50
2023-04-02T00:50:07.545Z,48.20
2023-04-02T00:52:36.292Z,48.20
2023-04-02T00:55:13.559Z,48.00
2023-04-02T00:57:45.020Z,48.00
2023-04-02T01:00:44.036Z,48.20
2023-04-02T01:03:16.875Z,48.00
2023-04-02T01:06:01.629Z,48.00
2023-04-02T01:08:43.984Z,48.00
2023-04-02T01:11:43.936Z,48.00
2023-04-02T01:14:44.197Z,47.90
2023-04-02T01:17:30.514Z,48.00
2023-04-02T01:20:16.018Z,47.70
2023-04-02T01:22:51.017Z,47.60
2023-04-02T01:25:25.028Z,47.70
2023-04-02T01:28:01.006Z,47.70
2023-04-02T01:30:27.768Z,47.80
2023-04-02T01:32:54.758Z,47.70
2023-04-02T01:35:22.446Z,47.70
2023-04-02T01:37:57.314Z,47.70
2023-04-02T01:40:47.108Z,47.70
2023-04-02T01:43:49.077Z,47.80
2023-04-02T01:46:29.721Z,47.80
2023-04-02T01:48:59.682Z,47.90
2023-04-02T01:51:40.244Z,48.00
2023-04-02T01:54:08.563Z,48.00
2023-04-02T01:56:35.658Z,48.10
2023-04-02T01:59:05.807Z,48.20
2023-04-02T02:01:39.460Z,48.20
2023-04-02T02:04:07.113Z,48.00
2023-04-02T02:06:33.829Z,48.00
2023-04-02T02:09:04.222Z,48.10
2023-04-02T02:11:33.235Z,48.20
2023-04-02T02:14:02.176Z,48.20
2023-04-02T02:16:31.958Z,48.20
2023-04-02T02:19:02.497Z,48.30
2023-04-02T02:21:45.652Z,48.30
2023-04-02T02:24:19.128Z,48.20
2023-04-02T02:26:48.454Z,48.20
2023-04-02T02:29:19.986Z,48.30
2023-04-02T02:31:48.748Z,48.30
2023-04-02T02:34:29.762Z,48.30
2023-04-02T02:37:06.782Z,48.30
2023-04-02T02:39:44.563Z,48.30
2023-04-02T02:42:16.451Z,48.20
2023-04-02T02:44:49.431Z,48.00
2023-04-02T02:47:22.480Z,48.10
2023-04-02T02:49:55.453Z,48.00
2023-04-02T02:52:31.728Z,48.00
2023-04-02T02:55:03.383Z,48.00
2023-04-02T02:57:31.829Z,48.00
2023-04-02T03:00:00.620Z,48.00
2023-04-02T03:02:28.832Z,48.00
2023-04-02T03:04:56.550Z,48.00
2023-04-02T03:07:26.483Z,48.00
2023-04-02T03:10:14.625Z,47.70
2023-04-02T03:12:47.279Z,47.90
2023-04-02T03:15:32.067Z,48.00
2023-04-02T03:18:20.211Z,48.00
2023-04-02T03:20:49.020Z,48.00
2023-04-02T03:23:28.409Z,47.80
2023-04-02T03:26:15.505Z,47.90
2023-04-02T03:28:47.609Z,47.90
2023-04-02T03:31:27.549Z,47.90
2023-04-02T03:33:59.304Z,47.90
2023-04-02T03:36:28.503Z,47.90
2023-04-02T03:39:17.068Z,47.80
2023-04-02T03:41:52.402Z,47.90
2023-04-02T03:44:29.972Z,47.90
2023-04-02T03:47:03.674Z,47.80
2023-04-02T03:49:44.164Z,47.90
2023-04-02T03:52:12.200Z,47.80
2023-04-02T03:54:39.679Z,47.70
2023-04-02T03:57:32.027Z,47.60
2023-04-02T04:00:02.646Z,47.60
2023-04-02T04:02:41.201Z,47.60
2023-04-02T04:05:24.115Z,47.60
2023-04-02T04:07:53.942Z,47.60
2023-04-02T04:10:25.694Z,47.30
2023-04-02T04:12:55.681Z,47.50
2023-04-02T04:15:29.051Z,47.50
2023-04-02T04:18:02.460Z,47.50
2023-04-02T04:20:56.527Z,47.50
2023-04-02T04:23:30.545Z,47.50
2023-04-02T04:26:09.428Z,47.50
2023-04-02T04:29:16.069Z,47.50
2023-04-02T04:31:50.718Z,47.30
2023-04-02T04:34:46.898Z,47.40
2023-04-02T04:37:29.041Z,47.40
2023-04-02T04:40:24.526Z,47.30
2023-04-02T04:42:54.897Z,47.30
2023-04-02T04:45:41.210Z,47.30
2023-04-02T04:48:16.223Z,47.30
2023-04-02T04:51:20.999Z,47.30
2023-04-02T04:53:49.977Z,47.20
2023-04-02T04:56:25.034Z,47.20
2023-04-02T04:59:07.189Z,47.20
2023-04-02T05:01:41.973Z,47.20
2023-04-02T05:04:27.238Z,47.20
2023-04-02T05:07:12.576Z,47.20
2023-04-02T05:09:42.113Z,47.10
2023-04-02T05:12:27.038Z,47.10
2023-04-02T05:15:12.361Z,47.10
2023-04-02T05:18:18.570Z,46.90
2023-04-02T05:21:07.097Z,46.90
2023-04-02T05:24:02.931Z,46.70
2023-04-02T05:26:40.715Z,46.90
2023-04-02T05:29:26.541Z,46.60
2023-04-02T05:32:06.105Z,46.60
2023-04-02T05:34:37.315Z,46.70
2023-04-02T05:37:07.107Z,46.70
2023-04-02T05:39:34.169Z,46.60
2023-04-02T05:42:08.352Z,46.60
2023-04-02T05:44:41.487Z,46.70
2023-04-02T05:47:21.356Z,46.60
2023-04-02T05:49:56.754Z,46.70
2023-04-02T05:52:28.858Z,46.50
2023-04-02T05:55:02.737Z,46.50
2023-04-02T05:57:44.610Z,46.20
2023-04-02T06:00:25.332Z,46.00
2023-04-02T06:03:02.265Z,46.20
2023-04-02T06:05:36.261Z,46.40
2023-04-02T06:08:16.480Z,46.40
2023-04-02T06:11:01.309Z,46.00
2023-04-02T06:13:28.704Z,46.10
2023-04-02T06:15:55.869Z,46.10
2023-04-02T06:18:31.963Z,45.90
2023-04-02T06:20:59.094Z,45.90
2023-04-02T06:23:35.667Z,46.00
2023-04-02T06:26:07.580Z,46.00
2023-04-02T06:28:48.180Z,46.00
2023-04-02T06:31:23.560Z,45.90
2023-04-02T06:33:52.402Z,45.80
2023-04-02T06:36:20.431Z,45.80
2023-04-02T06:38:49.038Z,45.80
2023-04-02T06:41:22.176Z,45.80
2023-04-02T06:44:04.079Z,45.70
2023-04-02T06:46:49.922Z,45.60
2023-04-02T06:49:45.920Z,45.80
2023-04-02T06:52:25.390Z,45.80
2023-04-02T06:54:52.126Z,45.70
2023-04-02T06:57:18.837Z,45.60
2023-04-02T06:59:45.802Z,45.10
2023-04-02T07:02:36.767Z,44.90
2023-04-02T07:05:09.127Z,45.40
2023-04-02T07:07:36.028Z,45.60
2023-04-02T07:10:02.764Z,45.50
2023-04-02T07:12:29.429Z,45.00
2023-04-02T07:14:56.241Z,45.10
2023-04-02T07:17:23.027Z,44.80
2023-04-02T07:19:49.924Z,44.80
2023-04-02T07:22:19.806Z,45.10
2023-04-02T07:24:46.799Z,45.20
2023-04-02T07:27:14.766Z,45.00
2023-04-02T07:29:44.812Z,44.50
2023-04-02T07:32:14.558Z,44.80
2023-04-02T07:34:41.831Z,44.50
2023-04-02T07:37:13.675Z,44.50
2023-04-02T07:39:40.783Z,44.60
2023-04-02T07:42:08.089Z,44.60
2023-04-02T07:44:34.957Z,44.40
2023-04-02T07:47:01.825Z,44.70
2023-04-02T07:49:28.734Z,44.60
2023-04-02T07:51:55.422Z,44.70
2023-04-02T07:54:22.043Z,44.90
2023-04-02T07:56:48.700Z,44.80
2023-04-02T07:59:15.375Z,44.80
2023-04-02T08:01:43.015Z,44.80
2023-04-02T08:04:21.409Z,44.80
2023-04-02T08:06:49.700Z,44.80
2023-04-02T08:09:17.545Z,44.70
2023-04-02T08:11:44.380Z,44.80
2023-04-02T08:14:11.385Z,44.70
2023-04-02T08:17:04.503Z,44.70
2023-04-02T08:19:32.706Z,44.60
2023-04-02T08:22:00.484Z,44.50
2023-04-02T08:24:27.167Z,44.50
2023-04-02T08:26:54.471Z,44.60
2023-04-02T08:29:22.054Z,44.60
2023-04-02T08:31:48.911Z,44.60
2023-04-02T08:34:15.902Z,44.50
2023-04-02T08:36:44.570Z,44.60
2023-04-02T08:39:11.732Z,44.40
2023-04-02T08:41:47.126Z,44.40
2023-04-02T08:44:39.108Z,44.20
2023-04-02T08:47:07.367Z,44.20
2023-04-02T08:49:39.825Z,44.20
2023-04-02T08:52:06.489Z,44.10
2023-04-02T08:54:39.118Z,44.00
2023-04-02T08:57:18.176Z,44.00
2023-04-02T08:59:45.559Z,43.90
2023-04-02T09:02:19.140Z,43.90
2023-04-02T09:04:46.040Z,43.90
2023-04-02T09:07:15.367Z,43.90
2023-04-02T09:09:42.593Z,43.70
2023-04-02T09:12:23.845Z,43.70
2023-04-02T09:15:06.733Z,43.60
2023-04-02T09:17:42.734Z,43.70
2023-04-02T09:20:13.331Z,43.50
2023-04-02T09:22:40.047Z,43.50
2023-04-02T09:25:14.618Z,43.60
2023-04-02T09:27:41.319Z,43.70
2023-04-02T09:30:32.192Z,43.70
2023-04-02T09:33:07.414Z,43.70
2023-04-02T09:35:36.913Z,43.60
2023-04-02T09:38:32.630Z,43.60
2023-04-02T09:41:00.947Z,43.70
2023-04-02T09:43:38.355Z,43.70
2023-04-02T09:46:22.008Z,43.70
2023-04-02T09:49:01.108Z,43.60
2023-04-02T09:51:31.814Z,43.60
2023-04-02T09:54:04.332Z,43.50
2023-04-02T09:56:39.019Z,43.60
2023-04-02T09:59:21.957Z,43.50
2023-04-02T10:01:54.630Z,42.30
2023-04-02T10:04:34.677Z,40.00
2023-04-02T10:07:01.818Z,39.00
2023-04-02T10:09:32.372Z,38.90
2023-04-02T10:12:01.233Z,39.80
2023-04-02T10:14:37.240Z,40.10
2023-04-02T10:17:14.685Z,40.30
2023-04-02T10:19:46.234Z,40.60
2023-04-02T10:22:22.027Z,40.90
2023-04-02T10:24:50.010Z,41.00
2023-04-02T10:27:22.493Z,41.00
2023-04-02T10:30:08.083Z,40.80
2023-04-02T10:32:44.438Z,41.10
2023-04-02T10:35:38.415Z,41.20
2023-04-02T10:38:42.609Z,41.20
2023-04-02T10:41:34.073Z,41.30
2023-04-02T10:44:20.034Z,41.20
2023-04-02T10:46:56.499Z,41.30
2023-04-02T10:49:28.138Z,41.40
2023-04-02T10:52:08.951Z,41.90
2023-04-02T10:54:51.611Z,42.00
2023-04-02T10:57:38.982Z,42.00
2023-04-02T11:00:12.829Z,41.80
2023-04-02T11:02:57.467Z,41.70
2023-04-02T11:05:44.904Z,41.60
2023-04-02T11:08:29.621Z,41.60
2023-04-02T11:11:02.806Z,40.90
2023-04-02T11:13:37.661Z,40.90
2023-04-02T11:16:04.665Z,41.00
2023-04-02T11:18:35.920Z,40.90
2023-04-02T11:21:22.772Z,40.80
2023-04-02T11:24:01.064Z,40.50
2023-04-02T11:26:34.283Z,40.30
2023-04-02T11:29:30.769Z,40.10
2023-04-02T11:32:27.844Z,40.70
2023-04-02T11:35:05.829Z,40.90
2023-04-02T11:37:41.069Z,40.40
2023-04-02T11:40:07.726Z,40.20
2023-04-02T11:42:50.611Z,40.50
2023-04-02T11:45:21.090Z,40.60
2023-04-02T11:48:00.680Z,40.50
2023-04-02T11:50:30.314Z,40.30
2023-04-02T11:53:20.625Z,40.50
2023-04-02T11:56:16.845Z,40.30
2023-04-02T11:59:24.448Z,40.30
2023-04-02T12:02:06.659Z,40.30
2023-04-02T12:04:40.741Z,40.20
2023-04-02T12:07:17.452Z,40.20
2023-04-02T12:09:49.666Z,40.10
2023-04-02T12:12:39.616Z,40.20
2023-04-02T12:15:28.003Z,40.20
2023-04-02T12:18:23.465Z,40.20
2023-04-02T12:20:56.314Z,40.10
2023-04-02T12:23:31.307Z,40.10
2023-04-02T12:26:24.582Z,40.10
2023-04-02T12:28:51.260Z,40.00
2023-04-02T12:31:21.839Z,40.00
2023-04-02T12:33:52.676Z,39.70
2023-04-02T12:36:23.851Z,40.00
2023-04-02T12:38:56.432Z,40.00
2023-04-02T12:41:31.144Z,40.00
2023-04-02T12:44:06.499Z,40.00
2023-04-02T12:46:35.526Z,40.00
2023-04-02T12:49:06.780Z,40.10
2023-04-02T12:51:36.273Z,40.20
2023-04-02T12:54:03.572Z,40.00
2023-04-02T12:56:30.347Z,40.00
2023-04-02T12:59:01.398Z,40.00
2023-04-02T13:01:31.473Z,39.80
2023-04-02T13:04:14.483Z,39.80
2023-04-02T13:06:50.019Z,40.00
2023-04-02T13:09:34.876Z,39.70
2023-04-02T13:12:02.577Z,39.90
2023-04-02T13:14:30.552Z,40.10
2023-04-02T13:16:57.520Z,40.10
2023-04-02T13:19:27.861Z,40.00
2023-04-02T13:21:56.291Z,40.00
2023-04-02T13:24:28.755Z,40.00
2023-04-02T13:26:58.429Z,39.80
2023-04-02T13:29:33.578Z,39.90
2023-04-02T13:32:03.303Z,39.80
2023-04-02T13:34:30.949Z,40.00
2023-04-02T13:36:58.238Z,39.90
2023-04-02T13:39:25.359Z,39.60
2023-04-02T13:41:54.808Z,39.70
2023-04-02T13:44:26.957Z,39.70
2023-04-02T13:46:55.136Z,39.50
2023-04-02T13:49:22.859Z,39.20
2023-04-02T13:51:55.208Z,39.20
2023-04-02T13:54:27.557Z,39.10
2023-04-02T13:56:56.012Z,39.00
2023-04-02T13:59:23.452Z,39.30
2023-04-02T14:01:53.376Z,39.20
2023-04-02T14:04:43.249Z,39.20
2023-04-02T14:07:20.512Z,39.00
2023-04-02T14:10:08.359Z,39.00
2023-04-02T14:12:59.309Z,38.90
2023-04-02T14:15:37.541Z,38.80
2023-04-02T14:18:10.500Z,39.00
2023-04-02T14:20:51.440Z,39.10
2023-04-02T14:23:30.346Z,39.20
2023-04-02T14:25:56.975Z,39.00
2023-04-02T14:28:57.721Z,39.00
2023-04-02T14:31:43.383Z,39.10
2023-04-02T14:34:33.361Z,39.20
2023-04-02T14:37:13.975Z,39.20
2023-04-02T14:39:59.326Z,39.10
2023-04-02T14:42:52.454Z,39.40
2023-04-02T14:45:49.006Z,39.40
2023-04-02T14:48:46.201Z,39.40
2023-04-02T14:51:14.882Z,39.50
2023-04-02T14:54:26.336Z,39.40
2023-04-02T14:57:10.130Z,39.30
2023-04-02T15:00:13.329Z,39.40
2023-04-02T15:02:51.517Z,39.20
2023-04-02T15:05:41.406Z,39.00
2023-04-02T15:08:18.555Z,38.80
2023-04-02T15:11:05.881Z,39.20
2023-04-02T15:13:45.962Z,39.20
2023-04-02T15:16:26.750Z,39.10
2023-04-02T15:18:56.497Z,39.10
2023-04-02T15:21:23.221Z,39.10
2023-04-02T15:23:50.064Z,39.10
2023-04-02T15:26:21.770Z,39.00
2023-04-02T15:29:28.207Z,39.10
2023-04-02T15:32:05.717Z,39.10
2023-04-02T15:34:40.872Z,38.90
2023-04-02T15:37:27.735Z,38.90
2023-04-02T15:40:23.771Z,38.90
2023-04-02T15:43:11.714Z,38.70
2023-04-02T15:45:49.060Z,38.90
2023-04-02T15:48:15.787Z,38.70
2023-04-02T15:50:49.548Z,38.70
2023-04-02T15:53:35.692Z,38.70
2023-04-02T15:56:05.443Z,38.90
2023-04-02T15:59:12.033Z,38.80
2023-04-02T16:01:48.793Z,38.70
2023-04-02T16:04:36.954Z,38.70
2023-04-02T16:07:14.354Z,38.70
2023-04-02T16:09:56.162Z,38.40
2023-04-02T16:12:25.679Z,38.70
2023-04-02T16:14:55.654Z,38.60
2023-04-02T16:17:33.568Z,38.40
2023-04-02T16:20:21.646Z,38.60
2023-04-02T16:23:16.255Z,38.60
2023-04-02T16:26:24.113Z,38.60
2023-04-02T16:29:09.408Z,38.50
2023-04-02T16:31:50.206Z,38.50
2023-04-02T16:34:30.690Z,38.50
2023-04-02T16:37:26.025Z,38.60
2023-04-02T16:40:26.178Z,38.70
2023-04-02T16:43:17.542Z,38.60
2023-04-02T16:45:44.167Z,38.40
2023-04-02T16:48:35.312Z,38.40
2023-04-02T16:51:17.613Z,38.50
2023-04-02T16:54:00.622Z,38.30
2023-04-02T16:57:02.100Z,38.50
2023-04-02T16:59:52.428Z,38.50
2023-04-02T17:02:51.733Z,38.40
2023-04-02T17:05:31.170Z,38.50
2023-04-02T17:08:16.129Z,38.40
2023-04-02T17:10:54.593Z,38.50
2023-04-02T17:13:41.454Z,38.60
2023-04-02T17:16:22.255Z,38.60
2023-04-02T17:18:53.096Z,38.70
2023-04-02T17:21:24.429Z,38.60
2023-04-02T17:23:56.521Z,38.70
2023-04-02T17:26:31.224Z,38.70
2023-04-02T17:29:00.542Z,38.70
2023-04-02T17:31:34.098Z,38.80
2023-04-02T17:34:11.642Z,38.70
2023-04-02T17:36:53.793Z,38.70
2023-04-02T17:39:25.723Z,38.70
2023-04-02T17:42:09.677Z,38.70
2023-04-02T17:44:50.397Z,38.50
2023-04-02T17:47:24.754Z,38.70
2023-04-02T17:50:20.930Z,38.80
2023-04-02T17:53:12.429Z,38.70
2023-04-02T17:56:04.232Z,38.90
2023-04-02T17:58:33.535Z,38.90
2023-04-02T18:01:31.281Z,39.00
2023-04-02T18:04:11.602Z,39.00
2023-04-02T18:06:48.825Z,39.00
2023-04-02T18:09:52.176Z,39.10
2023-04-02T18:12:58.058Z,39.20
2023-04-02T18:15:39.879Z,39.30
2023-04-02T18:18:29.682Z,39.30
2023-04-02T18:21:16.584Z,39.20
2023-04-02T18:24:06.380Z,39.30
2023-04-02T18:26:38.788Z,39.30
2023-04-02T18:29:08.556Z,39.30
2023-04-02T18:32:01.209Z,39.40
2023-04-02T18:34:33.939Z,39.30
2023-04-02T18:37:18.959Z,39.40
2023-04-02T18:40:26.088Z,39.40
2023-04-02T18:43:14.160Z,39.40
2023-04-02T18:46:10.002Z,39.60
2023-04-02T18:48:47.162Z,39.60
2023-04-02T18:51:21.941Z,39.70
2023-04-02T18:54:10.793Z,39.70
2023-04-02T18:56:39.115Z,39.70
2023-04-02T18:59:21.723Z,39.70
2023-04-02T19:01:52.136Z,39.80
2023-04-02T19:04:28.868Z,39.80
2023-04-02T19:07:07.074Z,39.90
2023-04-02T19:09:41.074Z,39.90
2023-04-02T19:12:16.000Z,40.00
2023-04-02T19:14:42.766Z,40.00
2023-04-02T19:17:29.367Z,40.00
2023-04-02T19:20:17.056Z,40.10
2023-04-02T19:22:54.307Z,40.10
2023-04-02T19:25:34.036Z,40.20
2023-04-02T19:28:15.916Z,40.20
2023-04-02T19:31:01.506Z,40.20
2023-04-02T19:33:34.743Z,40.30
2023-04-02T19:36:28.595Z,40.30
2023-04-02T19:39:01.465Z,40.40
2023-04-02T19:42:03.198Z,40.40
2023-04-02T19:44:30.260Z,40.40
2023-04-02T19:46:57.888Z,40.40
2023-04-02T19:49:32.714Z,40.40
2023-04-02T19:51:59.453Z,40.40
2023-04-02T19:54:26.115Z,40.40
2023-04-02T19:56:53.105Z,40.50
2023-04-02T19:59:19.868Z,41.00
2023-04-02T20:01:47.057Z,41.00
2023-04-02T20:04:14.771Z,41.00
2023-04-02T20:06:41.981Z,41.00
2023-04-02T20:09:08.863Z,41.10
2023-04-02T20:11:37.758Z,41.10
2023-04-02T20:14:05.466Z,41.20
2023-04-02T20:16:33.688Z,41.20
2023-04-02T20:19:00.640Z,41.20
2023-04-02T20:21:27.568Z,41.30
2023-04-02T20:23:55.068Z,41.30
2023-04-02T20:26:22.642Z,41.30
2023-04-02T20:28:49.556Z,41.40
2023-04-02T20:31:18.465Z,41.40
2023-04-02T20:33:45.718Z,41.40
2023-04-02T20:36:15.676Z,41.40
2023-04-02T20:38:43.347Z,41.40
2023-04-02T20:41:10.387Z,41.40
2023-04-02T20:43:40.681Z,41.40
2023-04-02T20:46:10.043Z,41.40
2023-04-02T20:48:38.738Z,41.40
2023-04-02T20:51:09.871Z,41.40
2023-04-02T20:53:37.960Z,41.40
2023-04-02T20:56:06.717Z,41.40
2023-04-02T20:58:35.589Z,41.30
2023-04-02T21:01:19.668Z,41.40
2023-04-02T21:03:46.933Z,41.50
2023-04-02T21:06:19.554Z,41.60
2023-04-02T21:08:46.799Z,41.50
2023-04-02T21:11:14.203Z,41.50
2023-04-02T21:13:44.231Z,41.50
2023-04-02T21:16:16.158Z,41.50
2023-04-02T21:18:43.913Z,41.50
2023-04-02T21:21:13.518Z,41.50
2023-04-02T21:23:43.485Z,41.40
2023-04-02T21:26:17.940Z,41.40
2023-04-02T21:28:45.906Z,41.40
2023-04-02T21:31:20.448Z,41.40
2023-04-02T21:33:53.579Z,41.40
2023-04-02T21:36:23.038Z,41.60
2023-04-02T21:38:52.763Z,41.60
2023-04-02T21:41:26.535Z,41.80
2023-04-02T21:43:54.299Z,41.80
2023-04-02T21:46:23.648Z,41.90
2023-04-02T21:48:51.882Z,41.90
2023-04-02T21:51:23.485Z,41.90
2023-04-02T21:53:50.221Z,41.90
2023-04-02T21:56:19.271Z,42.00
2023-04-02T21:58:47.254Z,42.00
2023-04-02T22:01:26.630Z,42.00
2023-04-02T22:03:58.157Z,42.00
2023-04-02T22:06:26.554Z,42.00
2023-04-02T22:08:56.204Z,42.10
2023-04-02T22:11:44.715Z,42.10
2023-04-02T22:14:11.990Z,42.20
2023-04-02T22:16:40.565Z,42.10
2023-04-02T22:19:10.511Z,42.20
2023-04-02T22:21:38.036Z,42.30
2023-04-02T22:24:07.030Z,42.30
2023-04-02T22:26:35.053Z,42.30
2023-04-02T22:29:02.065Z,42.40
2023-04-02T22:31:31.598Z,42.40
2023-04-02T22:33:58.874Z,42.40
2023-04-02T22:36:27.402Z,42.40
2023-04-02T22:38:54.167Z,42.40
2023-04-02T22:41:27.315Z,42.40
2023-04-02T22:43:55.623Z,42.40
2023-04-02T22:46:23.077Z,42.40
2023-04-02T22:48:50.440Z,42.40
2023-04-02T22:51:19.685Z,42.40
2023-04-02T22:53:46.920Z,42.40
2023-04-02T22:56:22.875Z,42.40
2023-04-02T22:58:50.226Z,42.50
2023-04-02T23:01:22.996Z,42.50
2023-04-02T23:03:50.065Z,42.60
2023-04-02T23:06:18.317Z,42.50
2023-04-02T23:08:46.064Z,42.50
2023-04-02T23:11:19.432Z,42.40
2023-04-02T23:13:49.016Z,42.50
2023-04-02T23:16:16.770Z,42.40
2023-04-02T23:18:46.198Z,42.40
2023-04-02T23:21:13.162Z,42.50
2023-04-02T23:23:39.794Z,42.50
2023-04-02T23:26:09.385Z,42.50
2023-04-02T23:28:36.912Z,42.50
2023-04-02T23:31:05.966Z,42.60
2023-04-02T23:33:32.854Z,42.60
2023-04-02T23:36:00.119Z,42.70
2023-04-02T23:38:27.077Z,42.80
2023-04-02T23:40:53.978Z,42.80
2023-04-02T23:43:20.735Z,42.80
2023-04-02T23:45:50.571Z,42.90
2023-04-02T23:48:17.340Z,42.90
2023-04-02T23:50:45.367Z,43.00
2023-04-02T23:53:12.677Z,43.00
2023-04-02T23:55:40.312Z,43.00
2023-04-02T23:58:07.074Z,43.00
